createdAt,value
2018-12-19T00:01:46.356Z,67.91
2018-12-19T00:04:14.745Z,67.78
2018-12-19T00:06:43.278Z,67.96
2018-12-19T00:09:11.673Z,68.00
2018-12-19T00:11:40.079Z,66.73
2018-12-19T00:14:08.464Z,65.96
2018-12-19T00:16:36.888Z,65.16
2018-12-19T00:19:05.390Z,65.23
2018-12-19T00:21:33.796Z,65.09
2018-12-19T00:24:02.209Z,65.31
2018-12-19T00:26:30.611Z,65.70
2018-12-19T00:28:59.039Z,66.12
2018-12-19T00:31:27.440Z,65.81
2018-12-19T00:33:56.153Z,66.15
2018-12-19T00:36:24.556Z,66.80
2018-12-19T00:38:52.983Z,66.67
2018-12-19T00:41:21.365Z,67.33
2018-12-19T00:43:49.770Z,67.00
2018-12-19T00:46:18.169Z,67.32
2018-12-19T00:48:46.582Z,67.12
2018-12-19T00:51:15.005Z,66.37
2018-12-19T00:53:43.418Z,65.87
2018-12-19T00:56:11.833Z,64.96
2018-12-19T00:58:40.222Z,65.55
2018-12-19T01:01:08.625Z,65.21
2018-12-19T01:03:37.561Z,64.78
2018-12-19T01:06:06.073Z,64.82
2018-12-19T01:08:34.461Z,64.63
2018-12-19T01:11:02.871Z,64.66
2018-12-19T01:13:31.269Z,64.89
2018-12-19T01:15:59.681Z,64.33
2018-12-19T01:18:28.081Z,63.68
2018-12-19T01:20:56.497Z,63.82
2018-12-19T01:23:24.892Z,64.14
2018-12-19T01:25:53.301Z,64.35
2018-12-19T01:28:21.700Z,64.56
2018-12-19T01:30:50.125Z,64.06
2018-12-19T01:33:18.525Z,64.34
2018-12-19T01:35:47.002Z,64.75
2018-12-19T01:38:15.449Z,65.06
2018-12-19T01:40:43.869Z,65.07
2018-12-19T01:43:12.269Z,64.92
2018-12-19T01:45:40.672Z,65.41
2018-12-19T01:48:09.101Z,65.92
2018-12-19T01:50:37.529Z,65.63
2018-12-19T01:53:05.916Z,65.69
2018-12-19T01:55:34.342Z,65.27
2018-12-19T01:58:02.748Z,64.81
2018-12-19T02:00:32.645Z,64.95
2018-12-19T02:03:01.653Z,64.95
2018-12-19T02:05:30.121Z,64.10
2018-12-19T02:07:58.501Z,63.97
2018-12-19T02:10:27.041Z,63.03
2018-12-19T02:12:55.437Z,62.92
2018-12-19T02:15:23.836Z,62.49
2018-12-19T02:17:52.318Z,63.05
2018-12-19T02:20:20.784Z,62.46
2018-12-19T02:22:49.176Z,61.99
2018-12-19T02:25:17.592Z,62.07
2018-12-19T02:27:45.984Z,62.42
2018-12-19T02:30:14.380Z,62.75
2018-12-19T02:32:42.791Z,62.71
2018-12-19T02:35:11.172Z,62.79
2018-12-19T02:37:39.554Z,62.64
2018-12-19T02:40:08.114Z,62.48
2018-12-19T02:42:36.513Z,61.61
2018-12-19T02:45:05.264Z,61.16
2018-12-19T02:47:33.673Z,61.31
2018-12-19T02:50:02.199Z,61.14
2018-12-19T02:52:30.715Z,61.61
2018-12-19T02:54:59.134Z,61.81
2018-12-19T02:57:27.518Z,61.71
2018-12-19T02:59:55.910Z,61.66
2018-12-19T03:02:24.317Z,61.52
2018-12-19T03:04:52.710Z,61.67
2018-12-19T03:07:21.096Z,62.11
2018-12-19T03:09:49.517Z,61.40
2018-12-19T03:12:17.906Z,61.44
2018-12-19T03:14:46.313Z,60.73
2018-12-19T03:17:14.736Z,60.83
2018-12-19T03:19:43.136Z,60.68
2018-12-19T03:22:11.529Z,60.92
2018-12-19T03:24:39.949Z,60.09
2018-12-19T03:27:08.345Z,60.71
2018-12-19T03:29:36.732Z,60.91
2018-12-19T03:32:05.177Z,62.86
2018-12-19T03:34:33.569Z,63.21
2018-12-19T03:37:01.961Z,64.75
2018-12-19T03:39:30.397Z,65.07
2018-12-19T03:41:58.781Z,64.41
2018-12-19T03:44:27.173Z,64.25
2018-12-19T03:46:55.598Z,63.85
2018-12-19T03:49:24.117Z,63.43
2018-12-19T03:51:52.654Z,62.72
2018-12-19T03:54:21.296Z,62.02
2018-12-19T03:56:50.023Z,62.69
2018-12-19T03:59:18.424Z,62.38
2018-12-19T04:01:46.845Z,62.30
2018-12-19T04:04:15.240Z,61.41
2018-12-19T04:06:43.651Z,62.07
2018-12-19T04:09:12.066Z,62.62
2018-12-19T04:11:40.465Z,63.08
2018-12-19T04:14:08.878Z,63.28
2018-12-19T04:16:37.280Z,64.27
2018-12-19T04:19:05.693Z,65.24
2018-12-19T04:21:34.081Z,65.53
2018-12-19T04:24:02.484Z,65.03
2018-12-19T04:26:30.876Z,64.72
2018-12-19T04:28:59.307Z,64.24
2018-12-19T04:31:27.713Z,64.42
2018-12-19T04:33:56.135Z,64.34
2018-12-19T04:36:24.528Z,64.02
2018-12-19T04:38:53.056Z,63.97
2018-12-19T04:41:21.449Z,63.62
2018-12-19T04:43:49.865Z,64.31
2018-12-19T04:46:18.249Z,63.44
2018-12-19T04:48:46.644Z,63.57
2018-12-19T04:51:15.053Z,62.74
2018-12-19T04:53:43.475Z,62.69
2018-12-19T04:56:11.887Z,62.05
2018-12-19T04:58:40.293Z,62.15
2018-12-19T05:01:08.685Z,61.64
2018-12-19T05:03:37.104Z,61.62
2018-12-19T05:06:05.501Z,61.20
2018-12-19T05:08:33.904Z,61.27
2018-12-19T05:11:02.289Z,61.53
2018-12-19T05:13:30.722Z,61.36
2018-12-19T05:15:59.115Z,62.10
2018-12-19T05:18:27.526Z,63.24
2018-12-19T05:20:55.954Z,62.80
2018-12-19T05:23:24.365Z,62.68
2018-12-19T05:25:52.782Z,62.26
2018-12-19T05:28:21.168Z,61.99
2018-12-19T05:30:49.557Z,61.00
2018-12-19T05:33:17.955Z,60.43
2018-12-19T05:35:46.332Z,60.77
2018-12-19T05:38:14.741Z,59.91
2018-12-19T05:40:43.121Z,59.87
2018-12-19T05:43:11.531Z,59.94
2018-12-19T05:45:39.945Z,60.11
2018-12-19T05:48:08.349Z,59.72
2018-12-19T05:50:36.957Z,59.33
2018-12-19T05:53:05.509Z,59.49
2018-12-19T05:55:33.897Z,59.01
2018-12-19T05:58:02.300Z,57.38
2018-12-19T06:00:30.682Z,57.32
2018-12-19T06:02:59.113Z,57.43
2018-12-19T06:05:27.518Z,57.05
2018-12-19T06:07:56.029Z,57.24
2018-12-19T06:10:26.318Z,57.41
2018-12-19T06:12:54.875Z,57.94
2018-12-19T06:15:23.265Z,57.87
2018-12-19T06:17:51.681Z,57.03
2018-12-19T06:20:20.208Z,57.10
2018-12-19T06:22:48.624Z,57.58
2018-12-19T06:25:17.027Z,57.36
2018-12-19T06:27:45.544Z,57.52
2018-12-19T06:30:14.376Z,57.47
2018-12-19T06:32:43.000Z,57.56
2018-12-19T06:35:11.397Z,56.92
2018-12-19T06:37:39.812Z,56.70
2018-12-19T06:40:08.660Z,57.58
2018-12-19T06:42:37.088Z,57.38
2018-12-19T06:45:07.196Z,57.16
2018-12-19T06:47:35.609Z,56.43
2018-12-19T06:50:04.472Z,56.16
2018-12-19T06:52:32.898Z,56.71
2018-12-19T06:55:01.285Z,57.19
2018-12-19T06:57:29.688Z,57.12
2018-12-19T06:59:58.089Z,57.72
2018-12-19T07:02:26.492Z,56.78
2018-12-19T07:04:54.900Z,56.13
2018-12-19T07:07:23.316Z,56.35
2018-12-19T07:09:51.713Z,56.32
2018-12-19T07:12:20.155Z,56.45
2018-12-19T07:14:48.592Z,55.36
2018-12-19T07:17:17.083Z,55.71
2018-12-19T07:19:47.645Z,55.20
2018-12-19T07:22:17.213Z,55.01
2018-12-19T07:24:45.605Z,54.97
2018-12-19T07:27:14.084Z,55.76
2018-12-19T07:29:42.517Z,56.19
2018-12-19T07:32:10.924Z,55.89
2018-12-19T07:34:44.199Z,55.95
2018-12-19T07:37:09.912Z,55.65
2018-12-19T07:39:38.299Z,56.82
2018-12-19T07:42:06.765Z,55.41
2018-12-19T07:44:35.348Z,55.65
2018-12-19T07:47:03.762Z,55.09
2018-12-19T07:49:32.157Z,54.86
2018-12-19T07:52:00.597Z,55.47
2018-12-19T07:54:29.010Z,55.81
2018-12-19T07:56:58.059Z,55.41
2018-12-19T07:59:26.529Z,55.87
2018-12-19T08:01:54.953Z,56.02
2018-12-19T08:04:23.415Z,55.75
2018-12-19T08:06:52.505Z,54.62
2018-12-19T08:09:21.309Z,55.01
2018-12-19T08:11:49.705Z,55.30
2018-12-19T08:14:18.197Z,54.38
2018-12-19T08:16:46.598Z,53.97
2018-12-19T08:19:15.015Z,53.42
2018-12-19T08:21:43.425Z,54.02
2018-12-19T08:24:11.972Z,54.11
2018-12-19T08:26:40.385Z,53.36
2018-12-19T08:29:08.801Z,52.85
2018-12-19T08:31:37.274Z,53.18
2018-12-19T08:34:06.308Z,53.17
2018-12-19T08:36:34.705Z,53.30
2018-12-19T08:39:05.404Z,53.50
2018-12-19T08:41:33.784Z,52.05
2018-12-19T08:44:02.194Z,51.85
2018-12-19T08:46:30.588Z,52.19
2018-12-19T08:48:58.986Z,52.47
2018-12-19T08:51:27.370Z,51.91
2018-12-19T08:53:55.787Z,52.19
2018-12-19T08:56:24.166Z,52.39
2018-12-19T08:58:52.596Z,52.64
2018-12-19T09:01:20.982Z,52.20
2018-12-19T09:03:49.401Z,52.62
2018-12-19T09:06:18.344Z,52.56
2018-12-19T09:08:46.751Z,52.93
2018-12-19T09:11:15.240Z,52.35
2018-12-19T09:13:43.776Z,51.54
2018-12-19T09:16:12.158Z,51.70
2018-12-19T09:18:40.564Z,50.88
2018-12-19T09:21:08.949Z,51.24
2018-12-19T09:23:37.340Z,52.14
2018-12-19T09:26:05.737Z,50.80
2018-12-19T09:28:34.148Z,51.84
2018-12-19T09:31:02.520Z,52.03
2018-12-19T09:33:30.929Z,51.18
2018-12-19T09:35:59.313Z,51.66
2018-12-19T09:38:27.709Z,51.16
2018-12-19T09:40:56.092Z,51.77
2018-12-19T09:43:24.492Z,52.54
2018-12-19T09:45:52.880Z,51.96
2018-12-19T09:48:21.285Z,51.30
2018-12-19T09:50:49.682Z,51.16
2018-12-19T09:53:18.604Z,51.61
2018-12-19T09:55:49.034Z,51.40
2018-12-19T09:58:17.449Z,50.53
2018-12-19T10:00:45.832Z,50.48
2018-12-19T10:03:14.229Z,50.48
2018-12-19T10:05:42.714Z,50.52
2018-12-19T10:08:11.213Z,50.00
2018-12-19T10:10:39.605Z,51.77
2018-12-19T10:13:08.010Z,51.21
2018-12-19T10:15:36.381Z,52.29
2018-12-19T10:18:04.943Z,52.15
2018-12-19T10:20:33.381Z,49.56
2018-12-19T10:23:01.788Z,49.05
2018-12-19T10:25:30.216Z,49.77
2018-12-19T10:27:58.748Z,49.81
2018-12-19T10:30:27.194Z,49.06
2018-12-19T10:32:55.625Z,48.95
2018-12-19T10:35:25.169Z,48.49
2018-12-19T10:37:53.586Z,47.46
2018-12-19T10:40:22.005Z,49.46
2018-12-19T10:42:50.429Z,49.87
2018-12-19T10:45:18.850Z,49.79
2018-12-19T10:47:47.331Z,49.84
2018-12-19T10:50:15.792Z,49.08
2018-12-19T10:52:44.212Z,49.09
2018-12-19T10:55:12.648Z,50.77
2018-12-19T10:57:41.152Z,50.64
2018-12-19T11:00:17.929Z,50.13
2018-12-19T11:02:46.612Z,49.54
2018-12-19T11:05:15.025Z,50.11
2018-12-19T11:07:43.401Z,50.53
2018-12-19T11:10:11.800Z,50.39
2018-12-19T11:12:40.186Z,50.11
2018-12-19T11:15:10.456Z,50.51
2018-12-19T11:17:39.126Z,50.24
2018-12-19T11:20:09.886Z,50.13
2018-12-19T11:22:38.380Z,50.81
2018-12-19T11:25:07.358Z,51.05
2018-12-19T11:27:35.745Z,50.32
2018-12-19T11:30:05.343Z,51.25
2018-12-19T11:32:33.756Z,50.54
2018-12-19T11:35:02.192Z,50.05
2018-12-19T11:37:30.608Z,49.66
2018-12-19T11:39:59.132Z,49.37
2018-12-19T11:42:27.664Z,49.65
2018-12-19T11:44:56.857Z,48.76
2018-12-19T11:47:25.673Z,49.62
2018-12-19T11:49:54.095Z,49.31
2018-12-19T11:52:22.488Z,49.48
2018-12-19T11:54:50.890Z,49.84
2018-12-19T11:57:19.421Z,49.80
2018-12-19T11:59:47.817Z,49.57
2018-12-19T12:02:16.305Z,49.64
2018-12-19T12:04:44.765Z,50.64
2018-12-19T12:07:13.383Z,51.10
2018-12-19T12:09:41.872Z,50.91
2018-12-19T12:12:10.441Z,51.81
2018-12-19T12:14:38.973Z,51.29
2018-12-19T12:17:08.797Z,51.46
2018-12-19T12:19:37.382Z,52.59
2018-12-19T12:22:05.992Z,52.05
2018-12-19T12:24:34.485Z,52.70
2018-12-19T12:27:02.881Z,52.73
2018-12-19T12:29:31.289Z,52.56
2018-12-19T12:31:59.670Z,52.20
2018-12-19T12:34:28.089Z,52.72
2018-12-19T12:36:56.476Z,52.44
2018-12-19T12:39:24.920Z,51.91
2018-12-19T12:41:53.649Z,52.04
2018-12-19T12:44:22.074Z,52.61
2018-12-19T12:46:50.493Z,52.64
2018-12-19T12:49:18.909Z,52.17
2018-12-19T12:51:47.288Z,52.61
2018-12-19T12:54:15.689Z,52.97
2018-12-19T12:56:44.101Z,53.06
2018-12-19T12:59:12.611Z,52.69
2018-12-19T13:01:40.985Z,52.29
2018-12-19T13:04:09.395Z,52.38
2018-12-19T13:06:37.772Z,52.36
2018-12-19T13:09:10.889Z,52.00
2018-12-19T13:11:39.396Z,52.44
2018-12-19T13:14:07.861Z,52.69
2018-12-19T13:16:36.272Z,53.09
2018-12-19T13:19:04.685Z,52.98
2018-12-19T13:21:33.392Z,53.75
2018-12-19T13:24:02.856Z,53.53
2018-12-19T13:26:31.245Z,54.02
2018-12-19T13:28:59.644Z,53.76
2018-12-19T13:31:28.036Z,53.89
2018-12-19T13:33:56.461Z,54.58
2018-12-19T13:36:24.843Z,54.57
2018-12-19T13:38:54.334Z,54.59
2018-12-19T13:41:22.780Z,54.88
2018-12-19T13:43:51.192Z,54.39
2018-12-19T13:46:19.574Z,54.88
2018-12-19T13:48:47.972Z,54.72
2018-12-19T13:51:16.473Z,55.10
2018-12-19T13:53:44.894Z,55.54
2018-12-19T13:56:13.392Z,55.51
2018-12-19T13:58:42.244Z,55.73
2018-12-19T14:01:10.651Z,55.91
2018-12-19T14:03:39.144Z,55.83
2018-12-19T14:06:07.536Z,55.37
2018-12-19T14:08:35.970Z,55.22
2018-12-19T14:11:04.485Z,55.79
2018-12-19T14:13:32.888Z,55.27
2018-12-19T14:16:01.272Z,55.47
2018-12-19T14:18:29.673Z,55.99
2018-12-19T14:20:58.072Z,55.26
2018-12-19T14:23:26.672Z,55.83
2018-12-19T14:25:55.057Z,55.45
2018-12-19T14:28:23.469Z,55.97
2018-12-19T14:30:51.966Z,55.62
2018-12-19T14:33:20.368Z,55.59
2018-12-19T14:35:48.972Z,55.38
2018-12-19T14:38:17.387Z,55.89
2018-12-19T14:40:45.800Z,56.36
2018-12-19T14:43:14.333Z,56.84
2018-12-19T14:45:42.864Z,56.77
2018-12-19T14:48:11.265Z,56.98
2018-12-19T14:50:39.736Z,57.09
2018-12-19T14:53:08.160Z,56.61
2018-12-19T14:55:36.561Z,56.43
2018-12-19T14:58:05.125Z,57.20
2018-12-19T15:00:33.753Z,57.86
2018-12-19T15:03:02.159Z,58.06
2018-12-19T15:05:31.533Z,57.87
2018-12-19T15:07:59.939Z,59.14
2018-12-19T15:10:28.398Z,59.25
2018-12-19T15:12:56.921Z,59.42
2018-12-19T15:15:25.359Z,58.95
2018-12-19T15:17:53.753Z,58.79
2018-12-19T15:20:22.136Z,58.91
2018-12-19T15:22:50.667Z,58.83
2018-12-19T15:25:19.176Z,58.78
2018-12-19T15:27:47.589Z,58.17
2018-12-19T15:30:16.009Z,58.63
2018-12-19T15:32:44.551Z,58.12
2018-12-19T15:35:13.152Z,58.18
2018-12-19T15:37:41.542Z,57.80
2018-12-19T15:40:10.160Z,58.28
2018-12-19T15:42:38.536Z,57.77
2018-12-19T15:45:07.150Z,57.43
2018-12-19T15:47:35.527Z,57.40
2018-12-19T15:50:04.716Z,58.28
2018-12-19T15:52:33.094Z,58.34
2018-12-19T15:55:01.492Z,58.46
2018-12-19T15:57:29.881Z,58.79
2018-12-19T15:59:58.272Z,58.23
2018-12-19T16:02:26.672Z,58.51
2018-12-19T16:04:55.077Z,58.79
2018-12-19T16:07:23.464Z,59.29
2018-12-19T16:09:51.856Z,59.31
2018-12-19T16:12:20.245Z,59.32
2018-12-19T16:14:48.681Z,60.09
2018-12-19T16:17:17.065Z,60.26
2018-12-19T16:19:45.461Z,60.26
2018-12-19T16:22:13.840Z,59.87
2018-12-19T16:24:42.274Z,60.59
2018-12-19T16:27:10.656Z,60.10
2018-12-19T16:29:39.060Z,60.36
2018-12-19T16:32:07.469Z,60.36
2018-12-19T16:34:35.877Z,60.33
2018-12-19T16:37:04.302Z,60.58
2018-12-19T16:39:32.816Z,60.60
2018-12-19T16:42:01.192Z,59.93
2018-12-19T16:44:29.611Z,60.71
2018-12-19T16:46:58.000Z,60.62
2018-12-19T16:49:26.436Z,61.24
2018-12-19T16:51:54.829Z,61.52
2018-12-19T16:54:23.317Z,61.71
2018-12-19T16:56:51.736Z,61.63
2018-12-19T16:59:20.177Z,61.57
2018-12-19T17:01:48.809Z,62.31
2018-12-19T17:04:17.277Z,62.81
2018-12-19T17:06:45.659Z,63.72
2018-12-19T17:09:14.090Z,63.57
2018-12-19T17:11:42.472Z,62.49
2018-12-19T17:14:10.866Z,62.02
2018-12-19T17:16:40.348Z,61.34
2018-12-19T17:19:09.797Z,62.07
2018-12-19T17:21:38.648Z,61.83
2018-12-19T17:24:07.052Z,61.22
2018-12-19T17:26:35.497Z,61.85
2018-12-19T17:29:04.004Z,61.01
2018-12-19T17:31:32.408Z,61.16
2018-12-19T17:34:00.900Z,61.34
2018-12-19T17:36:29.345Z,60.92
2018-12-19T17:38:57.754Z,61.08
2018-12-19T17:41:26.179Z,61.93
2018-12-19T17:43:54.570Z,63.02
2018-12-19T17:46:23.193Z,62.04
2018-12-19T17:48:51.729Z,61.69
2018-12-19T17:51:20.137Z,61.12
2018-12-19T17:53:48.528Z,61.75
2018-12-19T17:56:16.965Z,60.98
2018-12-19T17:58:45.345Z,61.62
2018-12-19T18:01:13.812Z,60.43
2018-12-19T18:03:42.215Z,60.67
2018-12-19T18:06:10.695Z,60.55
2018-12-19T18:08:40.426Z,61.06
2018-12-19T18:11:08.854Z,60.70
2018-12-19T18:13:37.249Z,60.65
2018-12-19T18:16:05.734Z,59.90
2018-12-19T18:18:34.248Z,60.52
2018-12-19T18:21:02.706Z,60.04
2018-12-19T18:23:31.099Z,59.88
2018-12-19T18:25:59.622Z,60.13
2018-12-19T18:28:28.013Z,59.72
2018-12-19T18:30:56.644Z,59.60
2018-12-19T18:33:25.076Z,59.36
2018-12-19T18:35:53.472Z,59.34
2018-12-19T18:38:21.907Z,60.65
2018-12-19T18:42:20.480Z,60.15
2018-12-19T18:44:49.025Z,60.81
2018-12-19T18:47:18.622Z,60.55
2018-12-19T18:49:47.024Z,60.47
2018-12-19T18:52:15.519Z,60.39
2018-12-19T18:54:44.048Z,60.63
2018-12-19T18:57:13.299Z,60.46
2018-12-19T18:59:41.952Z,60.16
2018-12-19T19:02:10.399Z,59.91
2018-12-19T19:04:38.940Z,60.38
2018-12-19T19:07:07.421Z,60.31
2018-12-19T19:09:36.109Z,60.41
2018-12-19T19:12:04.518Z,60.56
2018-12-19T19:14:33.020Z,60.35
2018-12-19T19:17:01.404Z,60.37
2018-12-19T19:19:29.932Z,60.89
2018-12-19T19:21:58.351Z,61.30
2018-12-19T19:24:26.775Z,60.74
2018-12-19T19:26:55.200Z,59.90
2018-12-19T19:29:23.651Z,59.80
2018-12-19T19:31:52.157Z,60.39
2018-12-19T19:34:25.052Z,60.26
2018-12-19T19:36:51.133Z,60.05
2018-12-19T19:39:19.558Z,60.38
2018-12-19T19:41:48.024Z,59.52
2018-12-19T19:44:16.477Z,59.38
2018-12-19T19:46:45.588Z,59.66
2018-12-19T19:49:14.229Z,60.00
2018-12-19T19:51:42.617Z,60.54
2018-12-19T19:54:11.107Z,60.43
2018-12-19T19:56:39.588Z,60.78
2018-12-19T19:59:08.021Z,61.37
2018-12-19T20:01:36.696Z,61.02
2018-12-19T20:04:05.497Z,61.32
2018-12-19T20:06:34.066Z,61.06
2018-12-19T20:09:02.524Z,61.09
2018-12-19T20:11:31.014Z,60.61
2018-12-19T20:13:59.520Z,60.41
2018-12-19T20:16:27.904Z,60.58
2018-12-19T20:18:56.313Z,60.59
2018-12-19T20:21:24.692Z,60.76
2018-12-19T20:23:53.105Z,61.39
2018-12-19T20:26:21.501Z,60.77
2018-12-19T20:28:49.901Z,61.51
2018-12-19T20:31:18.407Z,61.50
2018-12-19T20:33:46.868Z,63.66
2018-12-19T20:36:16.345Z,62.77
2018-12-19T20:38:44.745Z,62.08
2018-12-19T20:41:13.169Z,62.39
2018-12-19T20:43:41.601Z,62.58
2018-12-19T20:46:10.016Z,62.48
2018-12-19T20:48:38.467Z,62.23
2018-12-19T20:51:07.126Z,62.67
2018-12-19T20:53:35.531Z,62.33
2018-12-19T20:56:04.181Z,62.62
2018-12-19T20:58:32.685Z,63.00
2018-12-19T21:01:01.336Z,64.21
2018-12-19T21:03:29.772Z,63.93
2018-12-19T21:05:58.220Z,64.28
2018-12-19T21:08:26.744Z,64.34
2018-12-19T21:10:55.179Z,64.19
2018-12-19T21:13:23.567Z,64.69
2018-12-19T21:15:52.275Z,64.24
2018-12-19T21:18:25.905Z,63.85
2018-12-19T21:20:54.321Z,64.06
2018-12-19T21:23:22.733Z,64.18
2018-12-19T21:25:51.140Z,64.33
2018-12-19T21:28:20.188Z,64.91
2018-12-19T21:30:48.613Z,65.69
2018-12-19T21:33:17.146Z,65.66
2018-12-19T21:35:45.590Z,65.44
2018-12-19T21:38:14.116Z,65.95
2018-12-19T21:40:42.620Z,65.29
2018-12-19T21:43:11.445Z,65.50
2018-12-19T21:45:39.952Z,66.92
2018-12-19T21:48:08.417Z,66.84
2018-12-19T21:50:37.144Z,67.53
2018-12-19T21:53:05.639Z,67.84
2018-12-19T21:55:34.125Z,67.73
2018-12-19T21:58:02.848Z,67.76
2018-12-19T22:00:37.614Z,67.01
2018-12-19T22:03:07.317Z,67.32
2018-12-19T22:05:37.947Z,67.47
2018-12-19T22:08:06.496Z,68.28
2018-12-19T22:10:35.277Z,67.55
2018-12-19T22:13:04.034Z,67.98
2018-12-19T22:15:32.632Z,68.14
2018-12-19T22:18:06.514Z,68.30
2018-12-19T22:20:35.577Z,68.85
2018-12-19T22:23:05.478Z,68.74
2018-12-19T22:25:34.069Z,69.49
2018-12-19T22:28:02.560Z,69.44
2018-12-19T22:30:33.042Z,69.69
2018-12-19T22:33:01.553Z,68.65
2018-12-19T22:35:30.534Z,68.43
2018-12-19T22:37:59.152Z,68.70
2018-12-19T22:40:27.726Z,69.25
2018-12-19T22:42:56.371Z,69.21
2018-12-19T22:45:24.911Z,68.79
2018-12-19T22:47:53.457Z,69.87
2018-12-19T22:50:22.101Z,70.70
2018-12-19T22:52:50.639Z,69.89
2018-12-19T22:55:19.053Z,70.63
2018-12-19T22:57:47.535Z,70.60
2018-12-19T23:00:17.184Z,71.09
2018-12-19T23:02:51.531Z,70.74
2018-12-19T23:05:25.487Z,69.76
2018-12-19T23:07:54.043Z,69.58
2018-12-19T23:10:22.537Z,70.01
2018-12-19T23:12:51.049Z,69.71
2018-12-19T23:15:20.277Z,69.74
2018-12-19T23:17:48.868Z,69.00
2018-12-19T23:20:17.617Z,69.14
2018-12-19T23:22:46.147Z,68.55
2018-12-19T23:25:14.849Z,69.16
2018-12-19T23:27:43.377Z,69.06
2018-12-19T23:30:12.038Z,69.05
2018-12-19T23:32:40.488Z,69.46
2018-12-19T23:35:09.179Z,69.72
2018-12-19T23:37:37.827Z,70.43
2018-12-19T23:40:06.584Z,69.89
2018-12-19T23:42:35.182Z,68.99
2018-12-19T23:45:04.803Z,68.48
2018-12-19T23:47:35.939Z,68.92
2018-12-19T23:50:06.181Z,69.89
2018-12-19T23:52:34.787Z,69.35
2018-12-19T23:55:04.263Z,69.42
2018-12-19T23:57:33.955Z,68.81
